M I D A S
Marine Information and Data Acquisition System
Tripno 1862 of the Zeeleeuw from 2010-04-15 07:09:10 to 2010-04-15 17:45:54
Back to CruiseResearch ActivitiesStationsMapUnderway DataData graphs

EquipmentUnitsComment
TimeDGPSUTC
LatitudeDGPSDM.mWGS84
LongitudeDGPSDM.mWGS84
HeadingGyrodeg 
SOGDGPSknotsSpeed over ground
COGDGPSdegCourse over ground
DepthEcho soundermeters200 kHz
Missing or incorrect values are displayed as -999
Navigation data collected by the RV Zeeleeuw from 2010-04-15 07:04:06 to 2010-04-15 22:15:01
                                                                                    Next 1000 lines
Time Latitude Longitude Heading SOG COG Depth
2010-04-15 07:04:15 51°13.662 2°55.958 112.6 0.5 304 4.5
2010-04-15 07:04:21 51°13.662 2°55.957 112.7 0.7 298 4.5
2010-04-15 07:04:26 51°13.663 2°55.955 112.8 0.9 298 4.5
2010-04-15 07:04:31 51°13.663 2°55.952 112.9 1.2 297 4.6
2010-04-15 07:04:36 51°13.664 2°55.949 112.9 1.5 296 4.7
2010-04-15 07:04:41 51°13.665 2°55.946 112.8 1.5 296 4.7
2010-04-15 07:04:47 51°13.667 2°55.942 112.8 1.7 296 -999
2010-04-15 07:04:52 51°13.668 2°55.939 112.9 1.9 296 -999
2010-04-15 07:04:58 51°13.67 2°55.934 113 2 296 -999
2010-04-15 07:05:03 51°13.671 2°55.931 113 2.1 298 -999
2010-04-15 07:05:09 51°13.673 2°55.925 113 2.3 297 -999
2010-04-15 07:05:14 51°13.674 2°55.92 112.9 2.4 296 -999
2010-04-15 07:05:19 51°13.675 2°55.915 112.8 2.5 296 -999
2010-04-15 07:05:24 51°13.677 2°55.91 112.8 2.6 297 -999
2010-04-15 07:05:30 51°13.679 2°55.903 112.9 2.7 296 -999
2010-04-15 07:05:34 51°13.68 2°55.898 112.3 2.8 296 -999
2010-04-15 07:05:39 51°13.682 2°55.892 111.1 2.9 294 -999
2010-04-15 07:05:45 51°13.684 2°55.885 109.3 3 292 -999
2010-04-15 07:05:50 51°13.685 2°55.879 107 3 289 -999
2010-04-15 07:05:55 51°13.686 2°55.872 103.9 3.1 286 6.7
2010-04-15 07:05:59 51°13.687 2°55.867 101.8 3.1 284 -999
2010-04-15 07:06:05 51°13.688 2°55.859 100.5 3.2 280 -999
2010-04-15 07:06:10 51°13.688 2°55.851 98.1 3.2 279 -999
2010-04-15 07:06:15 51°13.689 2°55.844 96.4 3.2 277 -999
2010-04-15 07:06:19 51°13.69 2°55.838 95.2 3.3 276 -999
2010-04-15 07:06:24 51°13.69 2°55.831 94.4 3.3 276 -999
2010-04-15 07:06:30 51°13.691 2°55.822 93.1 3.3 274 -999
2010-04-15 07:06:35 51°13.691 2°55.815 92.1 3.4 273 -999
2010-04-15 07:06:39 51°13.691 2°55.809 90.8 3.4 272 -999
2010-04-15 07:06:44 51°13.691 2°55.802 89.8 3.4 272 -999
2010-04-15 07:06:50 51°13.691 2°55.793 88.6 3.4 270 -999
2010-04-15 07:06:55 51°13.691 2°55.786 87.6 3.3 270 -999
2010-04-15 07:06:59 51°13.691 2°55.78 86.6 3.2 267 -999
2010-04-15 07:07:04 51°13.69 2°55.773 86 3.1 267 -999
2010-04-15 07:07:09 51°13.69 2°55.767 85.7 2.8 266 -999
2010-04-15 07:07:15 51°13.69 2°55.761 85.4 2.2 264 -999
2010-04-15 07:07:19 51°13.691 2°55.758 84.3 1.6 267 -999
2010-04-15 07:07:24 51°13.691 2°55.756 82.4 1.1 270 -999
2010-04-15 07:07:30 51°13.691 2°55.755 80.3 0.3 298 -999
2010-04-15 07:07:34 51°13.692 2°55.755 76.1 0.5 34 -999
2010-04-15 07:07:39 51°13.692 2°55.757 71.3 1 54 -999
2010-04-15 07:07:44 51°13.693 2°55.76 66.9 1.5 52 4.6
2010-04-15 07:07:49 51°13.695 2°55.763 60.6 1.9 47 4.5
2010-04-15 07:07:54 51°13.697 2°55.767 55.2 2.1 46 -999
2010-04-15 07:07:59 51°13.699 2°55.77 48.5 2.1 38 -999
2010-04-15 07:08:04 51°13.701 2°55.773 42 2 37 4.4
2010-04-15 07:08:09 51°13.703 2°55.774 38.7 1.6 34 4.6
2010-04-15 07:08:14 51°13.704 2°55.776 36.2 1.2 33 -999
2010-04-15 07:08:19 51°13.704 2°55.776 33.5 0.5 26 -999
2010-04-15 07:08:24 51°13.704 2°55.776 30.3 0.1 43 -999
2010-04-15 07:08:30 51°13.704 2°55.776 28.9 0.3 220 -999
2010-04-15 07:08:35 51°13.703 2°55.776 28.1 0.6 208 -999
2010-04-15 07:08:39 51°13.702 2°55.775 27.8 1 210 -999
2010-04-15 07:08:44 51°13.701 2°55.774 27.6 1 210 -999
2010-04-15 07:08:50 51°13.699 2°55.772 27.6 1 211 -999
2010-04-15 07:08:55 51°13.698 2°55.771 27.6 0.8 218 -999
2010-04-15 07:08:59 51°13.698 2°55.771 27.7 0.4 228 -999
2010-04-15 07:09:04 51°13.699 2°55.771 25.7 0.3 347 -999
2010-04-15 07:09:09 51°13.7 2°55.771 21.4 0.9 3 -999
2010-04-15 07:09:15 51°13.702 2°55.771 16 1.3 4 -999
2010-04-15 07:09:19 51°13.704 2°55.771 10.8 1.6 3 -999
2010-04-15 07:09:24 51°13.706 2°55.771 5.3 1.6 355 4.7
2010-04-15 07:09:29 51°13.709 2°55.77 1.7 1.7 353 4.5
2010-04-15 07:09:34 51°13.711 2°55.769 357.7 1.7 347 -999
2010-04-15 07:09:39 51°13.713 2°55.768 351.8 2 343 -999
2010-04-15 07:09:44 51°13.716 2°55.766 347.2 2.3 339 -999
2010-04-15 07:09:50 51°13.72 2°55.763 341.8 2.5 335 -999
2010-04-15 07:09:54 51°13.723 2°55.76 335.6 2.9 330 -999
2010-04-15 07:09:59 51°13.726 2°55.755 328.4 3.2 323 -999
2010-04-15 07:10:04 51°13.73 2°55.751 325.4 3.5 324 -999
2010-04-15 07:10:10 51°13.735 2°55.744 323.1 3.8 320 -999
2010-04-15 07:10:14 51°13.739 2°55.74 321.7 4.1 320 9.9
2010-04-15 07:10:19 51°13.744 2°55.734 320.8 4.4 318 9.7
2010-04-15 07:10:24 51°13.749 2°55.727 320.6 4.8 320 -999
2010-04-15 07:10:29 51°13.754 2°55.72 320.9 5.1 320 9.5
2010-04-15 07:10:34 51°13.76 2°55.712 321.6 5.3 321 9.1
2010-04-15 07:10:39 51°13.766 2°55.705 322.2 5.5 321 9
2010-04-15 07:10:43 51°13.771 2°55.698 323 3.3 321 9.1
2010-04-15 07:10:49 51°13.777 2°55.688 323.9 3.7 322 -999
2010-04-15 07:10:55 51°13.786 2°55.678 324.8 6 325 -999
2010-04-15 07:10:59 51°13.79 2°55.671 326.6 5.1 325 -999
2010-04-15 07:11:04 51°13.798 2°55.663 328.1 5.5 326 -999
2010-04-15 07:11:10 51°13.807 2°55.655 329.9 3.5 327 -999
2010-04-15 07:11:15 51°13.814 2°55.647 331.5 3.2 328 -999
2010-04-15 07:11:19 51°13.822 2°55.638 331.9 3.8 329 -999
2010-04-15 07:11:24 51°13.831 2°55.632 332.2 6.8 331 -999
2010-04-15 07:11:25 51°13.832 2°55.63 335.2 0.3 151 -999
2010-04-15 07:11:25 51°13.832 2°55.63 333.6 0.5 332 -999
2010-04-15 07:11:39 51°13.859 2°55.612 335.3 5.7 333 -999
2010-04-15 07:11:44 51°13.867 2°55.606 335.4 7.3 334 -999
2010-04-15 07:11:49 51°13.876 2°55.601 335.8 7.1 334 -999
2010-04-15 07:11:54 51°13.885 2°55.595 336.1 7.1 334 9.5
2010-04-15 07:11:59 51°13.894 2°55.59 336.1 7.2 333 -999
2010-04-15 07:12:03 51°13.901 2°55.583 335.8 7.2 333 9.4
2010-04-15 07:12:09 51°13.911 2°55.574 335.5 7.2 333 -999
2010-04-15 07:12:14 51°13.92 2°55.566 335.5 7.3 333 -999
2010-04-15 07:12:19 51°13.929 2°55.559 335.6 7.3 333 -999
2010-04-15 07:12:24 51°13.938 2°55.551 335.4 7.3 332 -999
2010-04-15 07:12:30 51°13.949 2°55.542 335 7.4 333 -999
2010-04-15 07:12:35 51°13.958 2°55.534 334.9 7.4 333 -999
2010-04-15 07:12:39 51°13.965 2°55.529 335.2 7.4 333 -999
2010-04-15 07:12:44 51°13.974 2°55.521 335.5 7.4 334 -999
2010-04-15 07:12:50 51°13.985 2°55.513 336 7.4 334 -999
2010-04-15 07:12:55 51°13.994 2°55.505 336.4 7.5 334 -999
2010-04-15 07:12:59 51°14.002 2°55.499 336.6 7.5 335 -999
2010-04-15 07:13:04 51°14.011 2°55.493 336.8 7.5 335 -999
2010-04-15 07:13:10 51°14.023 2°55.485 336.9 7.5 335 -999
2010-04-15 07:13:14 51°14.03 2°55.479 337.1 7.5 335 9.6
2010-04-15 07:13:19 51°14.04 2°55.473 337.2 7.5 335 -999
2010-04-15 07:13:24 51°14.049 2°55.466 337.3 7.6 335 -999
2010-04-15 07:13:30 51°14.06 2°55.457 337.3 7.5 335 -999
2010-04-15 07:13:34 51°14.068 2°55.452 337.4 7.5 336 8.9
2010-04-15 07:13:39 51°14.078 2°55.445 337.6 7.6 336 9
2010-04-15 07:13:43 51°14.085 2°55.44 337.8 7.5 336 9.3
2010-04-15 07:13:48 51°14.095 2°55.433 337.8 7.5 335 9.3
2010-04-15 07:13:54 51°14.106 2°55.424 337.6 7.5 335 -999
2010-04-15 07:13:59 51°14.116 2°55.416 337.2 7.8 334 -999
2010-04-15 07:14:04 51°14.126 2°55.409 336.8 8.2 334 -999
2010-04-15 07:14:10 51°14.139 2°55.398 336.6 8.6 334 -999
2010-04-15 07:14:14 51°14.147 2°55.391 335.9 8.9 333 -999
2010-04-15 07:14:19 51°14.159 2°55.382 335.7 9.2 334 -999
2010-04-15 07:14:24 51°14.17 2°55.372 335.5 9.5 333 -999
2010-04-15 07:14:30 51°14.185 2°55.359 334.7 9.7 332 -999
2010-04-15 07:14:34 51°14.194 2°55.351 334.4 10 332 -999
2010-04-15 07:14:40 51°14.209 2°55.338 334.2 10.2 331 -999
2010-04-15 07:14:45 51°14.222 2°55.327 334.1 10.4 331 -999
2010-04-15 07:14:50 51°14.235 2°55.315 333.2 10.6 329 -999
2010-04-15 07:14:55 51°14.248 2°55.303 331.9 10.8 329 -999
2010-04-15 07:14:59 51°14.258 2°55.292 331.5 11 328 9.5
2010-04-15 07:15:04 51°14.271 2°55.279 330.7 11 328 9.4
2010-04-15 07:15:09 51°14.284 2°55.265 330.1 11.3 327 9
2010-04-15 07:15:14 51°14.297 2°55.252 329.6 11.4 328 9.1
2010-04-15 07:15:19 51°14.311 2°55.239 330 11.5 329 9.2
2010-04-15 07:15:24 51°14.324 2°55.224 330.4 11.7 327 -999
2010-04-15 07:15:29 51°14.338 2°55.21 330.2 11.9 328 9.1
2010-04-15 07:15:34 51°14.352 2°55.195 330 12 327 8.6
2010-04-15 07:15:39 51°14.366 2°55.181 329.8 12.1 327 9
2010-04-15 07:15:43 51°14.377 2°55.169 329.6 12.2 327 9.2
2010-04-15 07:15:48 51°14.391 2°55.154 329.6 12.3 327 9
2010-04-15 07:15:53 51°14.405 2°55.139 329.6 12.4 327 8.8
2010-04-15 07:15:58 51°14.42 2°55.124 329.6 12.5 327 8.8
2010-04-15 07:16:03 51°14.434 2°55.108 329.2 12.5 327 8.7
2010-04-15 07:16:07 51°14.446 2°55.096 329.2 12.5 327 8.8
2010-04-15 07:16:13 51°14.463 2°55.078 329.4 12.6 327 9.2
2010-04-15 07:16:18 51°14.478 2°55.062 329.5 12.6 327 9.3
2010-04-15 07:16:22 51°14.489 2°55.05 329.4 12.7 326 9.4
2010-04-15 07:16:27 51°14.504 2°55.034 328.9 12.7 326 9.2
2010-04-15 07:16:31 51°14.516 2°55.021 328.5 12.7 324 9.3
2010-04-15 07:16:37 51°14.532 2°55.001 327.7 12.7 322 9.4
2010-04-15 07:16:41 51°14.544 2°54.987 327.2 12.8 323 10.4
2010-04-15 07:16:46 51°14.558 2°54.969 327.3 12.9 321 10.1
2010-04-15 07:16:51 51°14.571 2°54.951 327.3 13 320 10.2
2010-04-15 07:16:56 51°14.584 2°54.93 326.3 13.1 317 10.1
2010-04-15 07:17:01 51°14.598 2°54.911 325.9 13 319 9.8
2010-04-15 07:17:06 51°14.612 2°54.892 326.8 13.1 319 10.1
2010-04-15 07:17:11 51°14.626 2°54.874 327.8 13.2 321 10
2010-04-15 07:17:16 51°14.64 2°54.855 328.5 13.2 320 9.9
2010-04-15 07:17:21 51°14.654 2°54.837 328.8 13.2 322 10.2
2010-04-15 07:17:26 51°14.669 2°54.819 329.6 13.3 323 10.4
2010-04-15 07:17:31 51°14.684 2°54.801 330.3 13.4 323 10.2
2010-04-15 07:17:36 51°14.699 2°54.784 330.8 13.4 323 10
2010-04-15 07:17:41 51°14.714 2°54.766 331 13.5 323 10.7
2010-04-15 07:17:46 51°14.729 2°54.748 330.6 13.4 324 10.3
2010-04-15 07:17:51 51°14.744 2°54.73 330.8 13.4 323 10.5
2010-04-15 07:17:56 51°14.758 2°54.713 331.1 13.3 324 10.5
2010-04-15 07:18:01 51°14.773 2°54.696 331.8 13.3 324 10
2010-04-15 07:18:06 51°14.789 2°54.68 332.7 13.3 326 10.3
2010-04-15 07:18:11 51°14.805 2°54.664 333.5 13.3 327 10.4
2010-04-15 07:18:16 51°14.82 2°54.648 333.7 13.4 327 10.2
2010-04-15 07:18:21 51°14.836 2°54.632 333.8 13.5 328 10
2010-04-15 07:18:26 51°14.852 2°54.617 333.9 13.5 329 10.5
2010-04-15 07:18:31 51°14.868 2°54.6 333.6 13.5 327 9.9
2010-04-15 07:18:36 51°14.883 2°54.584 332.4 13.6 326 10.3
2010-04-15 07:18:41 51°14.899 2°54.566 332 13.6 326 10.3
2010-04-15 07:18:46 51°14.914 2°54.549 331.1 13.6 325 9.5
2010-04-15 07:18:51 51°14.929 2°54.531 330.8 13.4 324 8.1
2010-04-15 07:18:56 51°14.944 2°54.515 330.3 13 326 8.2
2010-04-15 07:19:01 51°14.958 2°54.498 330.8 12.9 323 8.2
2010-04-15 07:19:06 51°14.973 2°54.481 330.4 13 325 8.2
2010-04-15 07:19:11 51°14.988 2°54.464 330.3 13.1 324 8.1
2010-04-15 07:19:16 51°15.002 2°54.447 330.3 13.2 323 8.2
2010-04-15 07:19:21 51°15.017 2°54.429 328.9 13.3 322 8.3
2010-04-15 07:19:26 51°15.032 2°54.411 328.9 13.2 323 8.2
2010-04-15 07:19:31 51°15.046 2°54.393 328.9 13.3 322 8.3
2010-04-15 07:19:36 51°15.06 2°54.375 328.9 13.2 323 8.1
2010-04-15 07:19:41 51°15.075 2°54.358 329.2 13.1 323 8.4
2010-04-15 07:19:46 51°15.09 2°54.342 330.2 13.2 326 8.4
2010-04-15 07:19:51 51°15.105 2°54.325 330.7 13.2 325 8.4
2010-04-15 07:19:56 51°15.12 2°54.307 330.5 13.3 323 8.4
2010-04-15 07:20:01 51°15.134 2°54.289 329.3 13.3 321 8.4
2010-04-15 07:20:06 51°15.148 2°54.269 328.3 13.4 319 8.5
2010-04-15 07:20:11 51°15.162 2°54.249 327.1 13.4 318 8.6
2010-04-15 07:20:16 51°15.176 2°54.23 326.7 13.5 319 8.6
2010-04-15 07:20:21 51°15.19 2°54.209 326.3 13.5 317 8.6
2010-04-15 07:20:26 51°15.204 2°54.19 326 13.5 318 8.7
2010-04-15 07:20:31 51°15.218 2°54.169 326.8 13.6 318 8.7
2010-04-15 07:20:36 51°15.232 2°54.15 327.8 13.5 320 8.6
2010-04-15 07:20:41 51°15.247 2°54.132 328.5 13.5 321 8.5
2010-04-15 07:20:46 51°15.261 2°54.113 329.5 13.5 322 8.7
2010-04-15 07:20:51 51°15.276 2°54.095 329.9 13.4 322 8.6
2010-04-15 07:20:56 51°15.291 2°54.076 329.9 13.4 321 8.7
2010-04-15 07:21:01 51°15.305 2°54.057 329.4 13.5 321 8.7
2010-04-15 07:21:06 51°15.319 2°54.038 328.7 13.5 319 8.7
2010-04-15 07:21:11 51°15.333 2°54.018 328 13.5 319 8.8
2010-04-15 07:21:16 51°15.347 2°53.998 327.4 13.6 318 8.7
2010-04-15 07:21:21 51°15.361 2°53.978 326.8 13.6 318 8.8
2010-04-15 07:21:26 51°15.375 2°53.957 326.5 13.7 317 9
2010-04-15 07:21:31 51°15.389 2°53.937 326.2 13.7 318 8.9
2010-04-15 07:21:36 51°15.403 2°53.916 326.6 13.7 318 8.8
2010-04-15 07:21:41 51°15.417 2°53.896 326.7 13.6 318 8.9
2010-04-15 07:21:46 51°15.431 2°53.875 327.1 13.7 318 9.1
2010-04-15 07:21:51 51°15.446 2°53.856 327.4 13.6 318 9.4
2010-04-15 07:21:56 51°15.46 2°53.836 327.6 13.7 319 9.1
2010-04-15 07:22:01 51°15.474 2°53.817 327.7 13.7 320 9.1
2010-04-15 07:22:06 51°15.49 2°53.799 329.6 13.6 322 9
2010-04-15 07:22:11 51°15.505 2°53.781 330.2 13.6 323 9.3
2010-04-15 07:22:16 51°15.52 2°53.763 331.1 13.6 323 9
2010-04-15 07:22:21 51°15.535 2°53.745 331.1 13.6 324 9.4
2010-04-15 07:22:26 51°15.55 2°53.727 331.4 13.6 323 9.3
2010-04-15 07:22:31 51°15.565 2°53.71 331.5 13.6 324 9.2
2010-04-15 07:22:36 51°15.58 2°53.692 331.6 13.6 324 9.3
2010-04-15 07:22:41 51°15.595 2°53.674 331.7 13.6 323 9.3
2010-04-15 07:22:46 51°15.611 2°53.656 331.4 13.6 324 9.6
2010-04-15 07:22:51 51°15.626 2°53.638 331.6 13.6 324 9.5
2010-04-15 07:22:56 51°15.641 2°53.621 331.9 13.5 325 9.4
2010-04-15 07:23:01 51°15.656 2°53.604 332.2 13.6 325 9.6
2010-04-15 07:23:06 51°15.672 2°53.587 332.2 13.5 327 9.8
2010-04-15 07:23:11 51°15.687 2°53.57 333.6 13.5 326 9.7
2010-04-15 07:23:16 51°15.703 2°53.555 334 13.4 328 9.6
2010-04-15 07:23:21 51°15.719 2°53.538 334.6 13.5 327 9.8
2010-04-15 07:23:26 51°15.735 2°53.523 335.2 13.4 328 10.1
2010-04-15 07:23:31 51°15.751 2°53.507 335.4 13.5 328 9.7
2010-04-15 07:23:35 51°15.764 2°53.495 335.4 13.5 328 9.9
2010-04-15 07:23:41 51°15.783 2°53.476 335.6 13.4 328 9.8
2010-04-15 07:23:46 51°15.798 2°53.46 335.4 13.4 328 10.2
2010-04-15 07:23:51 51°15.815 2°53.445 335.4 13.4 329 10.3
2010-04-15 07:23:56 51°15.831 2°53.429 335.5 13.5 328 10.3
2010-04-15 07:24:01 51°15.847 2°53.415 335.9 13.3 330 10.2
2010-04-15 07:24:06 51°15.863 2°53.4 337.1 13.4 330 10.3
2010-04-15 07:24:11 51°15.879 2°53.386 337.6 13.3 331 10.2
2010-04-15 07:24:16 51°15.895 2°53.372 338.6 13.4 332 10.1
2010-04-15 07:24:21 51°15.912 2°53.359 339 13.3 333 10.2
2010-04-15 07:24:26 51°15.928 2°53.345 340.1 13.3 332 10.1
2010-04-15 07:24:31 51°15.945 2°53.332 340.1 13.1 333 10.7
2010-04-15 07:24:36 51°15.961 2°53.319 340.3 13.2 333 10.5
2010-04-15 07:24:41 51°15.977 2°53.306 340.4 13.3 334 10.3
2010-04-15 07:24:46 51°15.994 2°53.293 341 13.2 334 10.1
2010-04-15 07:24:51 51°16.01 2°53.28 341.9 13.2 335 10.1
2010-04-15 07:24:55 51°16.024 2°53.27 342.5 13.2 335 10.3
2010-04-15 07:25:01 51°16.044 2°53.256 343.1 13.2 336 10.1
2010-04-15 07:25:06 51°16.06 2°53.244 343.4 13.1 336 10.1
2010-04-15 07:25:11 51°16.077 2°53.232 343.6 13.1 336 10.5
2010-04-15 07:25:15 51°16.09 2°53.223 343.8 13.2 336 10.5
2010-04-15 07:25:21 51°16.11 2°53.208 343.8 13.2 336 10.3
2010-04-15 07:25:26 51°16.126 2°53.196 343.8 13.2 335 10.3
2010-04-15 07:25:31 51°16.143 2°53.183 343.4 13.1 335 10.2
2010-04-15 07:25:35 51°16.156 2°53.173 343 13.2 334 10.3
2010-04-15 07:25:41 51°16.176 2°53.159 343.1 13.1 335 10.5
2010-04-15 07:25:46 51°16.192 2°53.146 343.4 13.2 334 10.5
2010-04-15 07:25:51 51°16.209 2°53.133 343.2 13.2 334 10.3
2010-04-15 07:25:55 51°16.222 2°53.123 343.1 13.1 334 10.4
2010-04-15 07:26:01 51°16.242 2°53.108 343.4 13.1 335 10.5
2010-04-15 07:26:06 51°16.258 2°53.095 343.7 13.2 334 10.4
2010-04-15 07:26:11 51°16.274 2°53.082 343.4 13.1 334 10.4
2010-04-15 07:26:15 51°16.287 2°53.072 343.4 13.1 333 10.3
2010-04-15 07:26:21 51°16.307 2°53.056 343.2 13.1 333 10.4
2010-04-15 07:26:26 51°16.323 2°53.043 343.3 13 333 10.3
2010-04-15 07:26:31 51°16.339 2°53.031 343.6 13 334 10.4
2010-04-15 07:26:35 51°16.352 2°53.02 343.6 13 336 10.5
2010-04-15 07:26:41 51°16.372 2°53.007 344.6 12.9 338 10.7
2010-04-15 07:26:47 51°16.392 2°52.994 345 13 338 10.3
2010-04-15 07:26:51 51°16.405 2°52.986 345.2 13 339 10.3
2010-04-15 07:26:55 51°16.419 2°52.977 345.1 13 338 10.3
2010-04-15 07:27:01 51°16.439 2°52.964 344.6 13 338 10.3
2010-04-15 07:27:06 51°16.455 2°52.953 344.2 13 338 10.3
2010-04-15 07:27:11 51°16.472 2°52.942 343.9 13 338 10.3
2010-04-15 07:27:15 51°16.485 2°52.934 343.8 13 338 10.4
2010-04-15 07:27:21 51°16.505 2°52.922 344.1 13 339 10.1
2010-04-15 07:27:26 51°16.522 2°52.911 344.1 13 338 10.2
2010-04-15 07:27:31 51°16.539 2°52.9 344.1 13 338 10.2
2010-04-15 07:27:35 51°16.552 2°52.892 343.7 13 337 10.2
2010-04-15 07:27:41 51°16.572 2°52.878 343.1 13 337 10.1
2010-04-15 07:27:46 51°16.588 2°52.866 343 13 336 10.1
2010-04-15 07:27:51 51°16.605 2°52.856 343.4 12.9 339 10
2010-04-15 07:27:55 51°16.619 2°52.847 344.1 12.9 337 9.8
2010-04-15 07:28:01 51°16.638 2°52.836 344.8 12.7 341 9.9
2010-04-15 07:28:06 51°16.655 2°52.826 345.6 12.8 339 10.1
2010-04-15 07:28:11 51°16.672 2°52.817 346 12.7 341 9.6
2010-04-15 07:28:15 51°16.685 2°52.809 346.3 12.8 341 9.4
2010-04-15 07:28:21 51°16.705 2°52.798 346.8 12.7 342 9
2010-04-15 07:28:26 51°16.722 2°52.789 347 12.8 341 9.2
2010-04-15 07:28:31 51°16.739 2°52.781 347 12.7 342 9
2010-04-15 07:28:35 51°16.752 2°52.773 347 12.6 341 8.3
2010-04-15 07:28:41 51°16.772 2°52.764 346.4 12.5 342 7.9
2010-04-15 07:28:46 51°16.788 2°52.755 347 12.4 341 8.2
2010-04-15 07:28:51 51°16.804 2°52.746 346.7 12.3 340 8.2
2010-04-15 07:28:56 51°16.82 2°52.737 346.4 12.3 341 8.1
2010-04-15 07:29:01 51°16.836 2°52.728 346.2 12.3 341 7.8
2010-04-15 07:29:06 51°16.852 2°52.719 346.3 12.3 342 8.1
2010-04-15 07:29:11 51°16.869 2°52.712 347.9 12.2 345 7.9
2010-04-15 07:29:16 51°16.885 2°52.705 349 12.1 345 7.9
2010-04-15 07:29:21 51°16.902 2°52.699 350.5 12.2 346 7.8
2010-04-15 07:29:26 51°16.918 2°52.692 351.3 12.2 346 7.9
2010-04-15 07:29:31 51°16.934 2°52.687 351.9 12.2 347 8.2
2010-04-15 07:29:36 51°16.951 2°52.681 352.7 12.2 348 8.2
2010-04-15 07:29:41 51°16.968 2°52.676 353.6 12.4 349 8.4
2010-04-15 07:29:46 51°16.984 2°52.67 354.3 12.4 349 8.4
2010-04-15 07:29:51 51°17.001 2°52.666 354.8 12.4 350 8.3
2010-04-15 07:29:55 51°17.015 2°52.662 355.1 12.4 350 8.3
2010-04-15 07:30:01 51°17.035 2°52.656 355.3 12.5 349 8.5
2010-04-15 07:30:06 51°17.052 2°52.65 355 12.5 349 8.2
2010-04-15 07:30:11 51°17.069 2°52.645 354.6 12.4 349 8.2
2010-04-15 07:30:16 51°17.086 2°52.639 354.3 12.4 349 7.9
2010-04-15 07:30:21 51°17.103 2°52.634 354.1 12.4 348 8.2
2010-04-15 07:30:26 51°17.12 2°52.629 354.3 12.2 349 8
2010-04-15 07:30:31 51°17.136 2°52.624 354.3 12.2 349 7.7
2010-04-15 07:30:36 51°17.153 2°52.619 354.7 12.3 350 7.7
2010-04-15 07:30:41 51°17.17 2°52.615 355.3 12.3 350 8
2010-04-15 07:30:46 51°17.186 2°52.609 355.6 12.3 349 8.3
2010-04-15 07:30:51 51°17.203 2°52.604 355.5 12.3 349 8.4
2010-04-15 07:30:56 51°17.22 2°52.599 355.1 12.3 349 8.2
2010-04-15 07:31:01 51°17.237 2°52.593 355 12.4 348 8.2
2010-04-15 07:31:06 51°17.253 2°52.587 354.5 12.4 348 8
2010-04-15 07:31:11 51°17.27 2°52.58 353.8 12.4 347 8.3
2010-04-15 07:31:16 51°17.287 2°52.574 353.5 12.4 347 8.4
2010-04-15 07:31:21 51°17.304 2°52.568 353 12.4 346 8.5
2010-04-15 07:31:26 51°17.32 2°52.561 352.6 12.5 346 8.6
2010-04-15 07:31:31 51°17.337 2°52.554 352.3 12.5 345 8.6
2010-04-15 07:31:35 51°17.35 2°52.548 352.2 12.5 345 8.7
2010-04-15 07:32:01 51°17.439 2°52.529 2.3 12.2 358 9
2010-04-15 07:32:28 51°17.529 2°52.539 11.2 12.1 8 8.9
2010-04-15 07:32:47 51°17.592 2°52.552 12.4 12.1 7 8.7
2010-04-15 07:33:11 51°17.672 2°52.569 12.4 12 8 8.5
2010-04-15 07:33:16 51°17.688 2°52.572 12.5 12.1 6 8.9
2010-04-15 07:33:16 51°17.688 2°52.572 12.5 12.1 7 8.9
2010-04-15 07:33:29 51°17.732 2°52.58 11.7 12.1 6 8.9
2010-04-15 07:33:34 51°17.748 2°52.583 11.6 12.1 6 8.7
2010-04-15 07:33:56 51°17.822 2°52.594 11.3 12.2 6 8.9
2010-04-15 07:35:05 51°18.055 2°52.634 12.4 12.3 10 9.1
2010-04-15 07:35:10 51°18.072 2°52.639 13.8 12.3 8 9
2010-04-15 07:35:15 51°18.089 2°52.644 14.9 12.2 11 9
2010-04-15 07:35:20 51°18.105 2°52.649 16.1 12.2 11 9.2
2010-04-15 07:35:25 51°18.122 2°52.655 16.8 12.2 13 9.3
2010-04-15 07:35:30 51°18.138 2°52.661 17.4 12.2 14 9.3
2010-04-15 07:35:35 51°18.154 2°52.669 20.2 12.1 19 9.5
2010-04-15 07:35:40 51°18.17 2°52.677 21.1 12.1 19 9.3
2010-04-15 07:35:46 51°18.188 2°52.691 25.2 12 25 9.4
2010-04-15 07:35:50 51°18.2 2°52.7 27.2 12 26 9.5
2010-04-15 07:35:55 51°18.214 2°52.713 30 11.9 29 9.6
2010-04-15 07:36:00 51°18.228 2°52.725 31.8 11.8 31 9.6
2010-04-15 07:36:06 51°18.245 2°52.743 34.1 11.8 34 9.6
2010-04-15 07:36:10 51°18.256 2°52.755 35.6 11.9 34 9.5
2010-04-15 07:36:15 51°18.269 2°52.77 37 11.9 36 9.4
2010-04-15 07:36:20 51°18.282 2°52.786 38.5 11.8 36 9.3
2010-04-15 07:36:26 51°18.297 2°52.807 40.3 11.7 43 9.4
2010-04-15 07:36:30 51°18.307 2°52.821 42.7 11.8 41 9.5
2010-04-15 07:36:35 51°18.319 2°52.838 44.2 11.9 43 9.1
2010-04-15 07:36:40 51°18.33 2°52.857 45.5 11.8 45 9.3
2010-04-15 07:36:45 51°18.342 2°52.876 46.4 11.9 46 9.5
2010-04-15 07:36:50 51°18.353 2°52.896 48 11.9 49 9.8
2010-04-15 07:36:55 51°18.363 2°52.916 49.4 11.8 50 10
2010-04-15 07:37:00 51°18.373 2°52.936 50.3 11.8 54 9.9
2010-04-15 07:37:05 51°18.384 2°52.957 51.7 11.8 51 9.7
2010-04-15 07:37:10 51°18.393 2°52.979 53.5 11.9 57 9.8
2010-04-15 07:37:15 51°18.402 2°53 54.7 11.8 53 9.7
2010-04-15 07:37:20 51°18.411 2°53.022 55.4 11.8 59 9.7
2010-04-15 07:37:25 51°18.42 2°53.044 56.1 11.8 56 9.9
2010-04-15 07:37:30 51°18.429 2°53.066 56.7 11.9 59 10
2010-04-15 07:37:35 51°18.437 2°53.088 57.5 11.8 58 9.9
2010-04-15 07:37:40 51°18.446 2°53.111 57.6 11.8 60 9.9
2010-04-15 07:37:45 51°18.454 2°53.133 58.2 11.8 58 9.7
2010-04-15 07:37:50 51°18.462 2°53.156 58.2 11.9 59 9.8
2010-04-15 07:37:55 51°18.471 2°53.178 57.8 11.8 58 9.9
2010-04-15 07:38:00 51°18.48 2°53.2 57.9 11.7 60 10.1
2010-04-15 07:38:06 51°18.49 2°53.227 58.2 11.7 59 9.6
2010-04-15 07:38:10 51°18.495 2°53.246 59.3 11.8 62 10
2010-04-15 07:38:15 51°18.504 2°53.268 59.2 11.8 59 9.5
2010-04-15 07:38:20 51°18.511 2°53.292 60.1 11.8 61 10
2010-04-15 07:38:26 51°18.522 2°53.319 59.9 11.9 61 9.8
2010-04-15 07:38:30 51°18.527 2°53.338 60.1 11.9 62 9.8
2010-04-15 07:38:35 51°18.536 2°53.361 60.5 11.8 61 9.8
2010-04-15 07:38:40 51°18.543 2°53.384 60.3 11.8 62 10
2010-04-15 07:38:45 51°18.552 2°53.406 60.1 11.8 61 9.9
2010-04-15 07:38:50 51°18.559 2°53.429 60.2 11.8 60 9.8
2010-04-15 07:38:55 51°18.567 2°53.452 59.5 11.8 61 9.7
2010-04-15 07:39:00 51°18.575 2°53.475 59.7 11.9 60 9.7
2010-04-15 07:39:05 51°18.584 2°53.498 59.5 12 60 9.7
2010-04-15 07:39:10 51°18.592 2°53.521 59.2 11.9 60 9.8
2010-04-15 07:39:15 51°18.601 2°53.544 58.9 11.9 60 9.8
2010-04-15 07:39:20 51°18.608 2°53.567 59.4 11.8 60 9.9
2010-04-15 07:39:25 51°18.617 2°53.589 58.9 11.9 59 9.8
2010-04-15 07:39:30 51°18.625 2°53.612 59 11.9 62 10
2010-04-15 07:39:35 51°18.633 2°53.635 59.8 11.9 62 9.8
2010-04-15 07:39:40 51°18.641 2°53.659 61.1 11.9 63 9.8
2010-04-15 07:39:45 51°18.649 2°53.682 61.1 12 62 9.8
2010-04-15 07:39:50 51°18.656 2°53.706 61.4 12 63 10
2010-04-15 07:39:55 51°18.664 2°53.729 61.7 11.9 63 9.9
2010-04-15 07:40:00 51°18.671 2°53.753 61.7 12 63 10
2010-04-15 07:40:05 51°18.679 2°53.776 61.9 12 63 9.7
2010-04-15 07:40:10 51°18.687 2°53.799 61.5 11.9 62 9.6
2010-04-15 07:40:15 51°18.694 2°53.823 61.1 11.9 63 9.8
2010-04-15 07:40:20 51°18.702 2°53.846 61.4 11.9 63 10.1
2010-04-15 07:40:26 51°18.711 2°53.874 61.3 11.9 63 10.1
2010-04-15 07:40:30 51°18.717 2°53.893 61.4 11.8 62 9.7
2010-04-15 07:40:35 51°18.725 2°53.916 61.5 11.9 63 9.8
2010-04-15 07:40:40 51°18.732 2°53.939 61.3 11.9 62 9.9
2010-04-15 07:40:46 51°18.742 2°53.967 61.9 11.9 61 10
2010-04-15 07:40:50 51°18.748 2°53.986 61.2 11.9 63 10
2010-04-15 07:40:55 51°18.755 2°54.01 61.6 11.9 63 9.9
2010-04-15 07:41:00 51°18.763 2°54.033 61.1 11.9 63 10.1
2010-04-15 07:41:05 51°18.771 2°54.056 61.1 11.9 61 9.8
2010-04-15 07:41:10 51°18.778 2°54.08 61.1 11.9 64 9.8
2010-04-15 07:41:15 51°18.786 2°54.103 61.5 11.9 61 10
2010-04-15 07:41:20 51°18.793 2°54.126 61.1 12 63 9.9
2010-04-15 07:41:25 51°18.801 2°54.15 61.2 12 61 9.7
2010-04-15 07:41:30 51°18.809 2°54.173 61.1 12 63 10.1
2010-04-15 07:41:35 51°18.816 2°54.197 61.1 12 63 10
2010-04-15 07:41:40 51°18.824 2°54.22 61.1 12 62 10.1
2010-04-15 07:41:45 51°18.832 2°54.244 61.3 12 63 9.7
2010-04-15 07:41:50 51°18.84 2°54.268 61.5 12.1 62 9.7
2010-04-15 07:41:55 51°18.847 2°54.292 62.2 12.1 66 9.8
2010-04-15 07:42:00 51°18.854 2°54.316 63.4 12 64 9.8
2010-04-15 07:42:05 51°18.86 2°54.341 64.3 12.1 67 9.9
2010-04-15 07:42:10 51°18.867 2°54.365 64.7 12.1 67 10.1
2010-04-15 07:42:15 51°18.873 2°54.39 65.4 12 67 9.9
2010-04-15 07:42:20 51°18.879 2°54.415 66.1 12.1 67 9.9
2010-04-15 07:42:26 51°18.887 2°54.444 65.6 12.1 67 9.9
2010-04-15 07:42:30 51°18.892 2°54.464 66.1 12.1 68 10
2010-04-15 07:42:35 51°18.899 2°54.489 66 12.1 67 10.1
2010-04-15 07:42:40 51°18.905 2°54.513 65.8 12 68 9.9
2010-04-15 07:42:46 51°18.913 2°54.543 65.9 12.1 67 9.8
2010-04-15 07:42:50 51°18.918 2°54.563 65.7 12 68 9.8
2010-04-15 07:42:55 51°18.924 2°54.587 66.3 12 69 9.9
2010-04-15 07:43:00 51°18.931 2°54.612 66.3 12.1 67 10.1
2010-04-15 07:43:06 51°18.938 2°54.642 65.8 12 68 9.6
2010-04-15 07:43:10 51°18.943 2°54.662 66.2 12 67 10
2010-04-15 07:43:15 51°18.95 2°54.686 65.4 12 67 9.8
2010-04-15 07:43:20 51°18.955 2°54.711 66 12 68 9.9
2010-04-15 07:43:25 51°18.963 2°54.735 65.6 11.9 66 9.6
2010-04-15 07:43:30 51°18.968 2°54.759 65.7 12 69 10
2010-04-15 07:43:35 51°18.975 2°54.783 65.8 12 66 10.1
2010-04-15 07:43:40 51°18.981 2°54.808 65.6 11.9 68 9.7
2010-04-15 07:43:45 51°18.988 2°54.832 66.1 11.9 67 9.7
2010-04-15 07:43:50 51°18.995 2°54.856 65.4 11.9 68 9.9
2010-04-15 07:43:55 51°19.001 2°54.881 66.2 11.9 67 9.8
2010-04-15 07:44:00 51°19.008 2°54.905 65.5 11.9 68 9.8
2010-04-15 07:44:05 51°19.014 2°54.929 65.9 11.9 66 10.2
2010-04-15 07:44:10 51°19.02 2°54.954 65.7 11.8 68 9.8
2010-04-15 07:44:15 51°19.026 2°54.978 65.9 11.9 68 10
2010-04-15 07:44:20 51°19.033 2°55.002 65.6 11.8 67 9.8
2010-04-15 07:44:25 51°19.039 2°55.026 66.1 11.9 69 10
2010-04-15 07:44:30 51°19.046 2°55.05 66 11.9 66 10.1
2010-04-15 07:44:35 51°19.051 2°55.075 65.9 11.9 69 10
2010-04-15 07:44:40 51°19.058 2°55.099 66.1 11.9 67 9.7
2010-04-15 07:44:45 51°19.064 2°55.123 65.9 11.9 68 9.9
2010-04-15 07:44:50 51°19.07 2°55.148 65.6 11.8 67 9.9
2010-04-15 07:44:55 51°19.077 2°55.172 65.5 11.9 66 9.8
2010-04-15 07:45:00 51°19.083 2°55.196 65.4 11.9 68 9.8
2010-04-15 07:45:06 51°19.091 2°55.225 65.5 11.9 65 9.8
2010-04-15 07:45:10 51°19.096 2°55.244 65.3 11.8 69 9.8
2010-04-15 07:45:15 51°19.102 2°55.268 65.7 11.8 65 9.8
2010-04-15 07:45:20 51°19.108 2°55.293 65.8 11.9 69 9.8
2010-04-15 07:45:25 51°19.115 2°55.317 65.5 11.8 66 9.8
2010-04-15 07:45:30 51°19.121 2°55.341 65.5 11.9 68 9.9
2010-04-15 07:45:35 51°19.128 2°55.365 65.3 11.9 66 9.7
2010-04-15 07:45:40 51°19.134 2°55.39 65.4 11.9 68 10
2010-04-15 07:45:45 51°19.14 2°55.414 65.8 11.9 66 9.8
2010-04-15 07:45:50 51°19.147 2°55.438 65.4 11.9 68 9.9
2010-04-15 07:45:55 51°19.154 2°55.462 65 11.9 66 9.8
2010-04-15 07:46:00 51°19.16 2°55.487 66 11.9 66 9.6
2010-04-15 07:46:05 51°19.166 2°55.511 65.4 12 68 10
2010-04-15 07:46:10 51°19.173 2°55.535 65 11.9 67 9.8
2010-04-15 07:46:15 51°19.179 2°55.56 65.6 12 68 9.8
2010-04-15 07:46:20 51°19.186 2°55.585 65.4 12 67 9.9
2010-04-15 07:46:25 51°19.192 2°55.61 65.2 12 68 9.7
2010-04-15 07:46:30 51°19.199 2°55.634 65.4 12 66 9.9
2010-04-15 07:46:35 51°19.205 2°55.659 65.4 12 69 9.8
2010-04-15 07:46:40 51°19.212 2°55.683 65.4 12 66 9.5
2010-04-15 07:46:45 51°19.218 2°55.707 65.3 11.9 68 9.7
2010-04-15 07:46:50 51°19.224 2°55.731 65.6 11.9 68 10
2010-04-15 07:46:55 51°19.231 2°55.755 65.1 11.8 66 9.6
2010-04-15 07:47:00 51°19.237 2°55.78 66.1 11.9 68 9.8
2010-04-15 07:47:06 51°19.245 2°55.809 65 11.9 66 9.8
2010-04-15 07:47:10 51°19.25 2°55.829 65 11.9 67 9.6
2010-04-15 07:47:15 51°19.257 2°55.853 65.5 11.8 66 9.6
2010-04-15 07:47:20 51°19.263 2°55.877 64.8 11.8 67 9.8
2010-04-15 07:47:26 51°19.271 2°55.905 64.7 11.8 66 9.7
2010-04-15 07:47:30 51°19.276 2°55.925 64.9 11.9 68 9.9
2010-04-15 07:47:35 51°19.282 2°55.949 65.2 11.9 65 9.5
2010-04-15 07:47:40 51°19.289 2°55.974 65.4 11.9 67 9.4
2010-04-15 07:47:45 51°19.295 2°55.998 65.4 11.7 67 9.7
2010-04-15 07:47:50 51°19.301 2°56.022 65.5 11.8 69 9.8
2010-04-15 07:47:55 51°19.308 2°56.046 65.4 11.8 66 9.8
2010-04-15 07:48:00 51°19.313 2°56.07 65.5 11.7 69 9.7
2010-04-15 07:48:05 51°19.32 2°56.094 65.5 11.8 67 9.6
2010-04-15 07:48:10 51°19.326 2°56.118 66.4 11.8 69 9.6
2010-04-15 07:48:15 51°19.332 2°56.142 67.2 11.9 70 9.5
2010-04-15 07:48:20 51°19.338 2°56.167 67.8 11.8 70 9.4
2010-04-15 07:48:25 51°19.343 2°56.192 68.6 11.7 73 9.5
2010-04-15 07:48:30 51°19.347 2°56.217 69.4 11.8 72 9.7
2010-04-15 07:48:35 51°19.353 2°56.242 69 11.9 72 9.7
2010-04-15 07:48:40 51°19.358 2°56.266 69.5 11.8 71 9.4
2010-04-15 07:48:45 51°19.363 2°56.291 69.8 11.8 73 9.5
2010-04-15 07:48:50 51°19.368 2°56.316 69.8 11.8 72 9.5
2010-04-15 07:48:55 51°19.373 2°56.341 69.8 11.9 72 9.3
2010-04-15 07:49:00 51°19.378 2°56.366 69.9 11.9 72 9.7
2010-04-15 07:49:05 51°19.383 2°56.391 69.8 11.8 72 9.6
2010-04-15 07:49:10 51°19.388 2°56.416 69.9 11.9 73 9.6
2010-04-15 07:49:15 51°19.394 2°56.441 69.8 11.9 71 9.7
2010-04-15 07:49:20 51°19.398 2°56.467 70 12 74 9.6
2010-04-15 07:49:26 51°19.405 2°56.496 69.6 11.9 70 9.4
2010-04-15 07:49:30 51°19.408 2°56.517 70.5 12 73 9.4
2010-04-15 07:49:35 51°19.414 2°56.542 69.8 12 69 9.4
2010-04-15 07:49:40 51°19.419 2°56.567 69.7 11.9 73 9.6
2010-04-15 07:49:45 51°19.425 2°56.592 69.3 11.9 71 9.6
2010-04-15 07:49:50 51°19.43 2°56.617 69.3 11.8 71 9.3
2010-04-15 07:49:55 51°19.436 2°56.641 69.1 11.7 69 9.2
2010-04-15 07:50:00 51°19.441 2°56.666 69.5 11.8 73 9.6
2010-04-15 07:50:04 51°19.445 2°56.686 69.2 11.9 70 9.5
2010-04-15 07:50:10 51°19.452 2°56.715 68.4 11.7 71 9.3
2010-04-15 07:50:15 51°19.456 2°56.74 69.4 11.6 71 9.2
2010-04-15 07:50:20 51°19.462 2°56.764 69.4 11.7 72 9.3
2010-04-15 07:50:24 51°19.466 2°56.784 69.3 11.8 72 9.4
2010-04-15 07:50:30 51°19.472 2°56.814 69.8 11.7 72 9.5
2010-04-15 07:50:35 51°19.477 2°56.838 69.8 11.7 71 9.3
2010-04-15 07:50:40 51°19.482 2°56.863 70.2 11.6 72 9.3
2010-04-15 07:50:45 51°19.488 2°56.887 68.7 11.4 72 9.2
2010-04-15 07:50:50 51°19.491 2°56.912 70.6 11.6 72 9.1
2010-04-15 07:50:55 51°19.497 2°56.936 69.5 11.7 71 9.4
2010-04-15 07:51:00 51°19.502 2°56.961 69.7 11.6 72 9.4
2010-04-15 07:51:05 51°19.507 2°56.985 69.4 11.6 71 9.4
2010-04-15 07:51:10 51°19.512 2°57.009 69.6 11.6 74 9.7
2010-04-15 07:51:15 51°19.518 2°57.033 69.2 11.6 68 9.2
2010-04-15 07:51:20 51°19.521 2°57.058 70.5 11.7 73 9.1
2010-04-15 07:51:24 51°19.527 2°57.077 69 11.5 70 9.3
2010-04-15 07:51:30 51°19.532 2°57.106 69.9 11.6 73 9.6
2010-04-15 07:51:35 51°19.538 2°57.13 69.9 11.6 70 9.4
2010-04-15 07:51:40 51°19.542 2°57.155 69.8 11.6 73 9.2
2010-04-15 07:51:45 51°19.548 2°57.179 69.7 11.7 70 9.1
2010-04-15 07:51:50 51°19.553 2°57.204 69.1 11.7 71 9
2010-04-15 07:51:55 51°19.558 2°57.228 69.3 11.7 71 9.1
2010-04-15 07:52:00 51°19.563 2°57.253 69.7 11.7 72 9
2010-04-15 07:52:05 51°19.569 2°57.277 69.9 11.7 71 9.2
2010-04-15 07:52:10 51°19.574 2°57.302 70.1 11.7 72 9.3
2010-04-15 07:52:15 51°19.579 2°57.327 69.9 11.7 71 9.1
2010-04-15 07:52:20 51°19.584 2°57.352 69.9 11.9 71 9.2
2010-04-15 07:52:25 51°19.59 2°57.377 69.6 11.8 71 9.3
2010-04-15 07:52:30 51°19.595 2°57.402 69.8 11.8 71 9.1
2010-04-15 07:52:35 51°19.6 2°57.427 69.9 11.9 72 9.2
2010-04-15 07:52:40 51°19.605 2°57.451 69.9 11.8 71 9.2
2010-04-15 07:52:44 51°19.61 2°57.471 69.7 11.9 71 9.4
2010-04-15 07:52:50 51°19.616 2°57.501 69.8 12 72 9.4
2010-04-15 07:52:55 51°19.621 2°57.526 70.2 12 71 9.1
2010-04-15 07:53:00 51°19.627 2°57.551 69.8 11.9 71 9.3
2010-04-15 07:53:04 51°19.631 2°57.571 69.9 12.1 72 9
2010-04-15 07:53:10 51°19.638 2°57.602 70.1 12.1 69 9.2
2010-04-15 07:53:15 51°19.643 2°57.627 69.6 12.1 72 9.2
2010-04-15 07:53:20 51°19.648 2°57.653 70.5 12.1 70 9.3
2010-04-15 07:53:24 51°19.653 2°57.673 69.8 12.1 73 9.2
2010-04-15 07:53:30 51°19.659 2°57.704 71.1 12.2 70 9.5
2010-04-15 07:53:35 51°19.664 2°57.729 69.7 12.1 71 9.2
2010-04-15 07:53:40 51°19.669 2°57.755 70.5 12.1 69 9.2
2010-04-15 07:53:45 51°19.675 2°57.78 69.1 12.2 73 9
2010-04-15 07:53:51 51°19.682 2°57.81 70.2 12.2 67 9
2010-04-15 07:53:55 51°19.686 2°57.831 69 12.2 74 9.1
2010-04-15 07:54:00 51°19.692 2°57.856 69.1 12.1 69 9.2
2010-04-15 07:54:05 51°19.697 2°57.882 69.3 12.2 72 9
2010-04-15 07:54:11 51°19.704 2°57.912 69.1 12.1 70 8.8
2010-04-15 07:54:15 51°19.708 2°57.933 69.4 12.1 71 8.8
2010-04-15 07:54:20 51°19.714 2°57.958 69.4 12.1 71 8.8
2010-04-15 07:54:25 51°19.719 2°57.983 69 12.1 71 9
2010-04-15 07:54:30 51°19.725 2°58.008 69 12.1 70 9.1
2010-04-15 07:54:35 51°19.731 2°58.034 68.6 12.1 70 9.1
2010-04-15 07:54:40 51°19.736 2°58.059 69 12.1 71 9
2010-04-15 07:54:45 51°19.742 2°58.084 68.8 12 71 8.9
2010-04-15 07:54:51 51°19.749 2°58.114 69.6 12.1 70 8.9
2010-04-15 07:54:55 51°19.753 2°58.134 68.7 12 72 9.1
2010-04-15 07:55:00 51°19.758 2°58.159 69.4 12 70 8.9
2010-04-15 07:55:05 51°19.765 2°58.184 68.4 12 70 8.8
2010-04-15 07:55:10 51°19.77 2°58.209 68.8 12 70 8.9
2010-04-15 07:55:15 51°19.776 2°58.234 68.1 12 69 8.8
2010-04-15 07:55:20 51°19.781 2°58.26 69 12 70 9
2010-04-15 07:55:25 51°19.787 2°58.284 68.7 12.1 72 8.9
2010-04-15 07:55:30 51°19.791 2°58.311 69.2 12.1 70 9
2010-04-15 07:55:35 51°19.798 2°58.335 68.3 11.9 69 8.8
2010-04-15 07:55:40 51°19.802 2°58.36 69.7 12 68 8.9
2010-04-15 07:55:44 51°19.808 2°58.38 68.1 12 72 8.9
2010-04-15 07:55:50 51°19.813 2°58.41 69.2 12 69 8.7
2010-04-15 07:55:55 51°19.819 2°58.436 69 12.1 71 8.7
2010-04-15 07:56:00 51°19.825 2°58.461 69 12 68 8.6
2010-04-15 07:56:05 51°19.83 2°58.485 69 11.9 73 8.7
2010-04-15 07:56:10 51°19.836 2°58.51 68.8 11.9 68 8.8
2010-04-15 07:56:15 51°19.842 2°58.535 68.3 11.9 70 8.9
2010-04-15 07:56:20 51°19.848 2°58.56 68.3 11.9 70 8.5
2010-04-15 07:56:25 51°19.853 2°58.585 68.8 12 69 8.6
2010-04-15 07:56:30 51°19.859 2°58.61 68.5 12 72 8.7
2010-04-15 07:56:35 51°19.864 2°58.635 69.4 12 71 8.9
2010-04-15 07:56:40 51°19.869 2°58.66 69.2 11.8 73 8.5
2010-04-15 07:56:45 51°19.874 2°58.685 70.1 11.9 70 8.7
2010-04-15 07:56:50 51°19.88 2°58.709 68.3 11.8 73 8.7
2010-04-15 07:56:55 51°19.885 2°58.735 70.2 11.9 72 8.7
2010-04-15 07:57:00 51°19.891 2°58.759 69.5 11.9 70 8.6
2010-04-15 07:57:04 51°19.894 2°58.779 69.5 11.8 71 8.8
2010-04-15 07:57:10 51°19.902 2°58.809 69.4 11.9 72 8.6
2010-04-15 07:57:15 51°19.907 2°58.834 69.5 11.8 70 8.6
2010-04-15 07:57:20 51°19.912 2°58.859 69.4 11.9 72 8.8
2010-04-15 07:57:25 51°19.917 2°58.884 69.5 11.8 72 8.8
2010-04-15 07:57:30 51°19.923 2°58.909 69.9 11.9 71 8.5
2010-04-15 07:57:35 51°19.928 2°58.934 69.5 11.9 71 8.6
2010-04-15 07:57:40 51°19.933 2°58.958 69.6 11.8 72 8.7
2010-04-15 07:57:45 51°19.938 2°58.983 69.8 11.8 72 8.8
2010-04-15 07:57:50 51°19.944 2°59.008 69.1 11.7 70 8.6
2010-04-15 07:57:55 51°19.949 2°59.032 69 11.7 70 8.6
2010-04-15 07:58:00 51°19.955 2°59.057 68.5 11.8 71 8.7
2010-04-15 07:58:05 51°19.961 2°59.081 68.3 11.8 68 8.8
2010-04-15 07:58:10 51°19.966 2°59.106 68.9 11.8 71 8.8
2010-04-15 07:58:15 51°19.973 2°59.129 68.1 11.7 68 8.6
2010-04-15 07:58:20 51°19.977 2°59.154 69.2 11.7 70 8.6
2010-04-15 07:58:25 51°19.983 2°59.178 68.7 11.7 71 8.8
2010-04-15 07:58:31 51°19.99 2°59.208 68.9 11.7 70 8.4
2010-04-15 07:58:35 51°19.994 2°59.227 68.7 11.7 70 8.5
2010-04-15 07:58:40 51°19.999 2°59.252 68.5 11.6 71 8.7
2010-04-15 07:58:45 51°20.004 2°59.276 69.2 11.7 70 8.6
2010-04-15 07:58:50 51°20.01 2°59.3 68.6 11.7 71 8.5
2010-04-15 07:58:55 51°20.014 2°59.326 69.1 11.6 71 8.4
2010-04-15 07:59:00 51°20.019 2°59.351 69.3 11.8 71 8.6
2010-04-15 07:59:05 51°20.025 2°59.375 68.6 11.7 70 8.7
2010-04-15 07:59:10 51°20.031 2°59.4 68.5 11.7 71 8.6
2010-04-15 07:59:15 51°20.036 2°59.424 68.7 11.6 70 8.5
2010-04-15 07:59:20 51°20.041 2°59.449 68.9 11.8 70 8.5
2010-04-15 07:59:24 51°20.046 2°59.468 68.6 11.7 71 8.2
2010-04-15 07:59:30 51°20.052 2°59.498 69.5 11.7 71 8.4
2010-04-15 07:59:35 51°20.058 2°59.522 69 11.8 69 8.3
2010-04-15 07:59:40 51°20.062 2°59.547 69.6 11.8 72 8.7
2010-04-15 07:59:45 51°20.068 2°59.571 69 11.7 70 8.1
2010-04-15 07:59:50 51°20.073 2°59.596 69.6 11.7 71 8.2
2010-04-15 07:59:55 51°20.079 2°59.621 69.6 11.7 70 8.3
2010-04-15 08:00:00 51°20.083 2°59.646 69.5 11.8 72 8.4
2010-04-15 08:00:05 51°20.089 2°59.669 69.1 11.7 69 8.5
2010-04-15 08:00:10 51°20.094 2°59.695 69.2 11.9 73 8.4
2010-04-15 08:00:15 51°20.1 2°59.718 69.2 11.8 69 8.3
2010-04-15 08:00:20 51°20.105 2°59.744 69.4 11.9 73 8.2
2010-04-15 08:00:25 51°20.11 2°59.768 70 11.9 71 8.2
2010-04-15 08:00:30 51°20.115 2°59.793 69.9 11.8 71 8.2
2010-04-15 08:00:35 51°20.12 2°59.817 69.5 11.7 71 8.5
2010-04-15 08:00:40 51°20.125 2°59.842 69.6 11.7 72 8.4
2010-04-15 08:00:45 51°20.13 2°59.867 69.8 11.9 72 8.4
2010-04-15 08:00:51 51°20.137 2°59.897 70 12 71 8.3
2010-04-15 08:00:55 51°20.141 2°59.917 69.8 11.9 72 8.3
2010-04-15 08:01:00 51°20.146 2°59.942 69.8 11.7 71 8.2
2010-04-15 08:01:05 51°20.151 2°59.966 69.7 11.7 72 8.5
2010-04-15 08:01:10 51°20.156 2°59.991 70.1 11.8 71 8.3
2010-04-15 08:01:15 51°20.162 3°0.016 69.8 11.9 70 8.2
2010-04-15 08:01:20 51°20.167 3°0.041 68.8 11.9 70 8.2
2010-04-15 08:01:25 51°20.173 3°0.065 68.4 11.8 71 8.3
2010-04-15 08:01:30 51°20.178 3°0.09 68.7 11.8 71 8.1
2010-04-15 08:01:35 51°20.184 3°0.114 69 11.9 69 8.2
2010-04-15 08:01:40 51°20.189 3°0.139 69.1 11.9 73 8.2
2010-04-15 08:01:45 51°20.195 3°0.164 69.2 11.8 69 8.2
2010-04-15 08:01:50 51°20.2 3°0.189 68.9 11.8 72 8
2010-04-15 08:01:55 51°20.205 3°0.214 69.8 12 71 8.3
2010-04-15 08:02:00 51°20.211 3°0.239 69.5 11.9 72 8.3
2010-04-15 08:02:05 51°20.216 3°0.263 69.6 11.8 71 8.2
2010-04-15 08:02:10 51°20.221 3°0.288 69.8 11.8 71 8.3
2010-04-15 08:02:15 51°20.227 3°0.313 69.5 11.9 70 8.2
2010-04-15 08:02:20 51°20.232 3°0.338 69.8 11.8 70 8.3
2010-04-15 08:02:25 51°20.237 3°0.363 69.2 11.9 72 8.4
2010-04-15 08:02:30 51°20.243 3°0.387 69 11.9 69 8.2
2010-04-15 08:02:35 51°20.249 3°0.412 68.5 11.8 69 8
2010-04-15 08:02:40 51°20.254 3°0.436 68.6 11.8 70 8.1
2010-04-15 08:02:44 51°20.259 3°0.456 69 11.8 71 8.2
2010-04-15 08:02:50 51°20.265 3°0.486 69.1 11.8 71 8
2010-04-15 08:02:55 51°20.27 3°0.511 70.2 11.9 71 8.2
2010-04-15 08:03:00 51°20.276 3°0.535 68.9 11.8 70 8.4
2010-04-15 08:03:05 51°20.282 3°0.56 69.2 11.7 68 8.1
2010-04-15 08:03:10 51°20.287 3°0.584 68.8 11.8 71 8.3
2010-04-15 08:03:15 51°20.293 3°0.609 68.3 11.9 68 8.3
2010-04-15 08:03:20 51°20.299 3°0.633 68.2 11.8 69 8.1
2010-04-15 08:03:25 51°20.305 3°0.657 68.2 11.8 70 8.2
2010-04-15 08:03:30 51°20.311 3°0.682 68.8 11.9 70 8.2
2010-04-15 08:03:35 51°20.317 3°0.707 69 12 69 8
2010-04-15 08:03:40 51°20.322 3°0.732 69.4 11.9 71 8.2
2010-04-15 08:03:45 51°20.328 3°0.757 69.4 11.9 71 8.3
2010-04-15 08:03:50 51°20.333 3°0.782 69.9 12 70 8.4
2010-04-15 08:03:55 51°20.339 3°0.807 69.1 12 69 8.3
2010-04-15 08:04:00 51°20.344 3°0.831 69.5 12 70 8.3
2010-04-15 08:04:05 51°20.35 3°0.856 69.6 11.9 70 8.6
2010-04-15 08:04:10 51°20.356 3°0.881 68.6 11.9 70 8.3
2010-04-15 08:04:15 51°20.361 3°0.905 69.1 11.9 69 8.3
2010-04-15 08:04:20 51°20.367 3°0.931 69 12 69 8.4
2010-04-15 08:04:25 51°20.373 3°0.955 68.5 11.8 71 8.4
2010-04-15 08:04:30 51°20.378 3°0.98 69.4 11.9 69 8.4
2010-04-15 08:04:35 51°20.384 3°1.005 69.1 11.9 71 8.2
2010-04-15 08:04:40 51°20.39 3°1.029 69.7 11.8 69 8.3
2010-04-15 08:04:45 51°20.395 3°1.054 69.3 11.9 72 8
2010-04-15 08:04:50 51°20.4 3°1.079 70.3 12 69 8.2
2010-04-15 08:04:55 51°20.406 3°1.104 69.1 11.9 71 8.6
2010-04-15 08:05:00 51°20.412 3°1.129 70 11.8 69 8.3
2010-04-15 08:05:04 51°20.416 3°1.149 69.5 11.9 72 8.6
2010-04-15 08:05:10 51°20.423 3°1.179 69.6 12 69 8.2
2010-04-15 08:05:15 51°20.429 3°1.203 69.2 12 70 8.4
2010-04-15 08:05:20 51°20.434 3°1.228 69 11.8 71 8.4
2010-04-15 08:05:25 51°20.44 3°1.253 69.8 11.9 69 8.3
2010-04-15 08:05:30 51°20.445 3°1.278 69.4 12 71 8.3
2010-04-15 08:05:35 51°20.451 3°1.302 69.3 11.8 68 8.2
2010-04-15 08:05:40 51°20.456 3°1.326 68.8 11.8 70 8.3
2010-04-15 08:05:45 51°20.462 3°1.351 68.8 11.8 70 8.1
2010-04-15 08:05:50 51°20.468 3°1.375 69.1 11.8 69 8.4
2010-04-15 08:05:55 51°20.474 3°1.4 68.5 11.9 70 8.2
2010-04-15 08:06:00 51°20.479 3°1.425 69.4 11.8 69 8.1
2010-04-15 08:06:05 51°20.485 3°1.45 69.4 11.9 71 8.4
2010-04-15 08:06:10 51°20.49 3°1.475 69.6 11.9 71 8.6
2010-04-15 08:06:15 51°20.496 3°1.499 69.7 11.9 70 8.3
2010-04-15 08:06:20 51°20.501 3°1.524 69.4 11.8 71 8.3
2010-04-15 08:06:25 51°20.507 3°1.548 69.1 11.7 70 8
2010-04-15 08:06:30 51°20.512 3°1.573 69.7 11.8 70 8.3
2010-04-15 08:06:35 51°20.518 3°1.598 69 11.8 71 8.1
2010-04-15 08:06:40 51°20.524 3°1.622 69.6 11.9 70 8
2010-04-15 08:06:45 51°20.53 3°1.647 69.5 11.9 69 8.2
2010-04-15 08:06:50 51°20.535 3°1.672 69.2 11.9 72 8.3
2010-04-15 08:06:55 51°20.541 3°1.696 69.6 11.9 68 8.1
2010-04-15 08:07:00 51°20.546 3°1.722 69.7 11.9 72 8.1
2010-04-15 08:07:05 51°20.552 3°1.746 69.6 11.8 69 8.3
2010-04-15 08:07:10 51°20.556 3°1.771 69.1 11.9 73 8.4
2010-04-15 08:07:15 51°20.563 3°1.796 69.6 11.9 68 8.2
2010-04-15 08:07:20 51°20.568 3°1.821 69.8 11.9 71 8.3
2010-04-15 08:07:25 51°20.576 3°1.844 67.1 11.8 64 8.2
2010-04-15 08:07:31 51°20.583 3°1.873 66.1 11.9 66 8.4
2010-04-15 08:07:35 51°20.59 3°1.891 63.9 11.8 62 8.2
2010-04-15 08:07:40 51°20.596 3°1.915 63.4 11.8 64 8.2
2010-04-15 08:07:45 51°20.605 3°1.937 62.1 11.8 61 8.5
2010-04-15 08:07:50 51°20.612 3°1.96 61.3 11.8 60 8.4
2010-04-15 08:07:55 51°20.62 3°1.983 60.7 11.7 61 8.3
2010-04-15 08:08:00 51°20.629 3°2.006 60.6 11.8 60 8.4
2010-04-15 08:08:05 51°20.637 3°2.029 60.1 11.8 60 8.4
2010-04-15 08:08:10 51°20.646 3°2.051 59.6 11.8 60 8.4
2010-04-15 08:08:15 51°20.653 3°2.074 60.3 11.9 60 8.6
2010-04-15 08:08:20 51°20.662 3°2.097 60.3 11.9 60 8.2
2010-04-15 08:08:24 51°20.668 3°2.115 60.9 11.9 61 8.3
2010-04-15 08:08:30 51°20.678 3°2.143 60.7 11.9 61 8.5
2010-04-15 08:08:35 51°20.685 3°2.166 60.5 11.9 61 8.3
2010-04-15 08:08:40 51°20.694 3°2.188 60.2 11.9 63 8.5
2010-04-15 08:08:45 51°20.702 3°2.211 61.2 11.9 59 8.3
2010-04-15 08:08:50 51°20.71 3°2.234 60.4 11.8 61 8.3
2010-04-15 08:08:55 51°20.718 3°2.257 61.2 11.8 61 8.2
2010-04-15 08:09:00 51°20.726 3°2.28 60.4 11.9 60 8.4
2010-04-15 08:09:05 51°20.734 3°2.303 60.8 11.8 60 8.3
2010-04-15 08:09:10 51°20.743 3°2.325 60.5 11.8 61 8
2010-04-15 08:09:15 51°20.751 3°2.349 61.1 11.9 60 8.5
2010-04-15 08:09:20 51°20.758 3°2.372 60.8 11.9 62 8.4
2010-04-15 08:09:25 51°20.767 3°2.394 60.6 11.8 60 8.2
2010-04-15 08:09:30 51°20.775 3°2.418 61 11.9 61 8.3
2010-04-15 08:09:35 51°20.783 3°2.44 60.8 11.9 59 8.3
2010-04-15 08:09:40 51°20.791 3°2.463 60.4 12 60 8.5
2010-04-15 08:09:45 51°20.799 3°2.487 60.9 12 61 8.7
2010-04-15 08:09:51 51°20.809 3°2.513 60.9 11.9 59 8.2
2010-04-15 08:09:55 51°20.815 3°2.532 60.8 12 62 8.7
2010-04-15 08:10:00 51°20.824 3°2.555 61 12 59 8.5
2010-04-15 08:10:05 51°20.832 3°2.578 61.1 11.9 60 8.5
2010-04-15 08:10:10 51°20.84 3°2.601 61.1 11.8 62 8.6
2010-04-15 08:10:15 51°20.848 3°2.625 61.2 11.8 61 8.6
2010-04-15 08:10:20 51°20.856 3°2.648 61.1 12 62 9
2010-04-15 08:10:25 51°20.864 3°2.671 60.8 11.9 61 8.7
2010-04-15 08:10:30 51°20.872 3°2.694 61.3 11.9 60 8.5
2010-04-15 08:10:35 51°20.88 3°2.717 60.9 12 61 8.8
2010-04-15 08:10:40 51°20.889 3°2.74 60.4 12 60 8.8
2010-04-15 08:10:45 51°20.897 3°2.763 60.6 12 60 8.8
2010-04-15 08:10:50 51°20.905 3°2.786 60.4 12 60 8.8
2010-04-15 08:10:55 51°20.914 3°2.809 60.2 12 60 8.5
2010-04-15 08:11:00 51°20.922 3°2.832 60.6 12.1 60 8.6
2010-04-15 08:11:05 51°20.93 3°2.855 60.8 12.1 61 8.6
2010-04-15 08:11:10 51°20.938 3°2.878 60.9 12 60 8.7
2010-04-15 08:11:15 51°20.946 3°2.902 61.5 12.1 63 8.8
2010-04-15 08:11:20 51°20.955 3°2.925 61.6 12.1 61 8.7
2010-04-15 08:11:25 51°20.962 3°2.949 61.8 12 62 8.6
2010-04-15 08:11:30 51°20.97 3°2.972 61.9 12 62 8.7
2010-04-15 08:11:35 51°20.978 3°2.996 62.3 12.1 62 8.5
2010-04-15 08:11:40 51°20.986 3°3.018 61.6 12 63 8.8
2010-04-15 08:11:44 51°20.992 3°3.037 62.3 11.9 60 8.8
2010-04-15 08:11:50 51°21.002 3°3.065 61.5 12 63 8.7
2010-04-15 08:11:55 51°21.01 3°3.088 61.7 12 60 8.5
2010-04-15 08:12:00 51°21.018 3°3.112 61.7 12 62 8.8
2010-04-15 08:12:05 51°21.026 3°3.135 61.5 12 59 8.7
2010-04-15 08:12:10 51°21.034 3°3.158 61.2 12 62 8.8
2010-04-15 08:12:15 51°21.043 3°3.181 61.2 12 60 9.1
2010-04-15 08:12:20 51°21.051 3°3.205 60.8 12.1 62 8.7
2010-04-15 08:12:25 51°21.059 3°3.228 61.3 12.1 60 8.8
2010-04-15 08:12:30 51°21.067 3°3.251 61.6 12 61 9
2010-04-15 08:12:35 51°21.075 3°3.274 61.4 12 59 8.9
2010-04-15 08:12:40 51°21.084 3°3.298 61.1 12.1 61 9
2010-04-15 08:12:45 51°21.092 3°3.321 61.3 12 59 9.3
2010-04-15 08:12:50 51°21.1 3°3.344 60.4 12 63 9
2010-04-15 08:12:55 51°21.109 3°3.367 61.1 12.1 58 8.8
2010-04-15 08:13:00 51°21.117 3°3.39 60.3 12.1 62 8.9
2010-04-15 08:13:04 51°21.123 3°3.409 61.1 12.1 59 9.1
2010-04-15 08:13:10 51°21.134 3°3.437 60.9 12.1 61 9.3
2010-04-15 08:13:15 51°21.142 3°3.46 61.1 12 61 9.3
2010-04-15 08:13:20 51°21.15 3°3.483 61.3 12.1 61 9.5
2010-04-15 08:13:24 51°21.156 3°3.502 61.6 12.1 62 9.5
2010-04-15 08:13:30 51°21.166 3°3.53 61.8 12 61 9.2
2010-04-15 08:13:35 51°21.174 3°3.553 61.6 12 61 9
2010-04-15 08:13:40 51°21.182 3°3.577 61.6 12 61 9.1
2010-04-15 08:13:45 51°21.19 3°3.6 61.8 12 62 9.3
2010-04-15 08:13:51 51°21.2 3°3.629 62.1 12.1 61 9.5
2010-04-15 08:13:55 51°21.206 3°3.648 61.8 12.1 61 9.5
2010-04-15 08:14:00 51°21.214 3°3.671 61.5 12.1 62 9.7
2010-04-15 08:14:05 51°21.223 3°3.694 61.2 12.1 61 9.3
2010-04-15 08:14:10 51°21.231 3°3.717 61.6 12.1 59 9.3
2010-04-15 08:14:15 51°21.239 3°3.741 61.8 12 63 9.7
2010-04-15 08:14:20 51°21.248 3°3.763 61.5 12 59 9.2
2010-04-15 08:14:25 51°21.255 3°3.787 61.4 12.2 63 9.8
2010-04-15 08:14:30 51°21.262 3°3.811 63.1 12 66 9.7
2010-04-15 08:14:35 51°21.268 3°3.836 65.2 12.1 67 9.2
2010-04-15 08:14:40 51°21.275 3°3.861 66.3 12.2 67 9.6
2010-04-15 08:14:45 51°21.281 3°3.886 67.3 12.2 69 9.5
2010-04-15 08:14:51 51°21.288 3°3.917 68.3 12.3 70 9.9
2010-04-15 08:14:55 51°21.293 3°3.936 69.1 12 71 9
2010-04-15 08:15:00 51°21.299 3°3.962 70.5 12.2 71 9.4
2010-04-15 08:15:05 51°21.304 3°3.987 69.9 12.1 69 9.5
2010-04-15 08:15:10 51°21.31 3°4.013 69.7 12.1 74 9.8
2010-04-15 08:15:15 51°21.315 3°4.038 70.5 12.1 69 9.3
2010-04-15 08:15:20 51°21.32 3°4.064 69.8 12.1 74 9.7
2010-04-15 08:15:25 51°21.325 3°4.089 72.2 12.3 70 9.7
2010-04-15 08:15:30 51°21.33 3°4.115 71.9 12.2 76 9.7
2010-04-15 08:15:35 51°21.334 3°4.141 73 12.1 72 9.7
2010-04-15 08:15:40 51°21.339 3°4.167 72.7 12 77 9.7
2010-04-15 08:15:44 51°21.342 3°4.187 73.8 12.1 73 9.8
2010-04-15 08:15:50 51°21.348 3°4.218 73.9 12.1 75 9.7
2010-04-15 08:15:55 51°21.352 3°4.245 73.9 12.2 74 9.8
2010-04-15 08:16:00 51°21.357 3°4.27 74.5 12.2 75 9.7
2010-04-15 08:16:05 51°21.361 3°4.297 74.3 12.3 77 9.8
2010-04-15 08:16:10 51°21.365 3°4.323 74.9 12.4 75 9.9
2010-04-15 08:16:15 51°21.369 3°4.349 74.7 12.2 76 9.9
2010-04-15 08:16:20 51°21.374 3°4.375 74.5 12 75 9.5
2010-04-15 08:16:25 51°21.378 3°4.401 74.8 12.1 73 9.9
2010-04-15 08:16:30 51°21.383 3°4.427 73.3 12.1 75 9.9
2010-04-15 08:16:35 51°21.388 3°4.452 72.8 12.1 72 9.7
2010-04-15 08:16:40 51°21.393 3°4.478 72.3 12.1 71 9.6
2010-04-15 08:16:45 51°21.399 3°4.503 71.1 12.1 71 9.5
2010-04-15 08:16:50 51°21.403 3°4.528 71.1 11.9 71 9.9
2010-04-15 08:16:55 51°21.409 3°4.553 70.5 12 72 9.7
2010-04-15 08:17:00 51°21.414 3°4.579 71.2 12 69 9.6
2010-04-15 08:17:05 51°21.419 3°4.604 71.1 12 73 9.7
2010-04-15 08:17:11 51°21.427 3°4.634 71.2 12.1 68 9.6
2010-04-15 08:17:15 51°21.43 3°4.655 70.5 12 74 9.9
2010-04-15 08:17:20 51°21.436 3°4.679 70.7 11.9 69 9.5
2010-04-15 08:17:25 51°21.441 3°4.704 71.1 12 71 9.7
2010-04-15 08:17:30 51°21.447 3°4.729 70.2 12 71 9.8
2010-04-15 08:17:35 51°21.452 3°4.754 70.5 11.9 70 9.6
2010-04-15 08:17:40 51°21.457 3°4.779 70.9 12 72 9.8
2010-04-15 08:17:45 51°21.463 3°4.804 70.5 11.9 72 9.7
2010-04-15 08:17:50 51°21.468 3°4.829 71.1 12 70 9.7
2010-04-15 08:17:55 51°21.474 3°4.854 70.9 12 71 9.8
2010-04-15 08:18:00 51°21.479 3°4.879 70.4 11.9 72 9.7
2010-04-15 08:18:05 51°21.485 3°4.904 71.2 11.8 69 9.8
2010-04-15 08:18:11 51°21.491 3°4.935 70.5 12 73 10.1
2010-04-15 08:18:15 51°21.496 3°4.954 70.4 12 68 9.8
2010-04-15 08:18:20 51°21.501 3°4.98 70.4 11.9 73 9.6
2010-04-15 08:18:25 51°21.507 3°5.004 70.6 11.9 68 9.5
2010-04-15 08:18:30 51°21.512 3°5.03 70.5 12 74 9.9
2010-04-15 08:18:35 51°21.518 3°5.054 70.8 11.9 68 9.8
2010-04-15 08:18:40 51°21.523 3°5.08 70.5 12 72 9.8
2010-04-15 08:18:45 51°21.529 3°5.104 70.4 12 69 10
2010-04-15 08:18:50 51°21.534 3°5.13 70.3 12.1 73 10.1
2010-04-15 08:18:55 51°21.54 3°5.155 70.8 12 69 10
2010-04-15 08:19:00 51°21.545 3°5.18 70 12 72 10
2010-04-15 08:19:06 51°21.552 3°5.209 70.7 12 69 9.6
2010-04-15 08:19:10 51°21.556 3°5.23 70.5 12 71 9.6
2010-04-15 08:19:15 51°21.562 3°5.255 70.3 12 70 9.9
2010-04-15 08:19:20 51°21.567 3°5.28 69.9 11.9 72 10
2010-04-15 08:19:25 51°21.573 3°5.304 70.9 12 70 9.7
2010-04-15 08:19:30 51°21.578 3°5.33 70.1 12 72 9.8
2010-04-15 08:19:35 51°21.583 3°5.354 70.3 11.8 71 9.6
2010-04-15 08:19:40 51°21.588 3°5.379 70.5 11.9 73 9.7
2010-04-15 08:19:45 51°21.594 3°5.404 70.4 11.8 70 9.9
2010-04-15 08:19:50 51°21.599 3°5.429 70.7 11.9 72 9.7
2010-04-15 08:19:55 51°21.605 3°5.454 70.9 12 69 9.7
2010-04-15 08:20:00 51°21.61 3°5.479 70.3 11.9 72 9.8
2010-04-15 08:20:05 51°21.616 3°5.504 70.2 11.9 68 9.7
2010-04-15 08:20:10 51°21.621 3°5.529 70.6 12 74 9.5
2010-04-15 08:20:15 51°21.627 3°5.553 70.2 12 66 9.8
2010-04-15 08:20:20 51°21.632 3°5.578 69.8 11.9 74 9.6
2010-04-15 08:20:25 51°21.639 3°5.603 70.7 12 66 9.5
2010-04-15 08:20:31 51°21.645 3°5.634 70.4 12.1 73 9.4
2010-04-15 08:20:35 51°21.65 3°5.653 70.1 12.1 68 9.6
2010-04-15 08:20:40 51°21.655 3°5.679 70.5 12 73 9.7
2010-04-15 08:20:45 51°21.661 3°5.703 70.7 11.9 68 9.5
2010-04-15 08:20:50 51°21.665 3°5.729 70.7 12 73 9.5
2010-04-15 08:20:55 51°21.671 3°5.754 70.6 12.1 69 9.4
2010-04-15 08:21:00 51°21.677 3°5.779 70.2 12 72 9.6
2010-04-15 08:21:05 51°21.682 3°5.804 71 11.9 71 9.6
2010-04-15 08:21:10 51°21.687 3°5.83 71.1 12 71 9.6
2010-04-15 08:21:15 51°21.693 3°5.855 70.6 12 70 9.7
2010-04-15 08:21:20 51°21.698 3°5.88 70.6 11.9 70 9.6
2010-04-15 08:21:25 51°21.704 3°5.905 70.4 11.9 71 9.8
2010-04-15 08:21:31 51°21.711 3°5.936 70.5 12.1 70 10
2010-04-15 08:21:35 51°21.715 3°5.956 70.3 12.1 71 9.9
2010-04-15 08:21:40 51°21.721 3°5.981 69.9 12.1 70 9.9
2010-04-15 08:21:45 51°21.726 3°6.006 70.4 12.2 71 9.9
2010-04-15 08:21:50 51°21.732 3°6.032 70.1 12.2 71 9.9
2010-04-15 08:21:55 51°21.738 3°6.057 70.5 12.1 71 10
2010-04-15 08:22:00 51°21.743 3°6.082 70.5 12.2 71 9.9
2010-04-15 08:22:05 51°21.749 3°6.107 69.9 12.1 70 10
2010-04-15 08:22:10 51°21.754 3°6.133 71 12.2 72 10.5
2010-04-15 08:22:15 51°21.76 3°6.158 70.3 12.1 69 10.4
2010-04-15 08:22:20 51°21.765 3°6.183 70.9 12 71 10.1
2010-04-15 08:22:24 51°21.769 3°6.204 70.7 12.2 70 10.4
2010-04-15 08:22:30 51°21.776 3°6.234 70.2 12.1 71 10.4
2010-04-15 08:22:35 51°21.782 3°6.259 70.7 12.1 70 10.3
2010-04-15 08:22:40 51°21.787 3°6.285 70.1 12.1 71 10.4
2010-04-15 08:22:45 51°21.793 3°6.31 70.2 12 69 10.3
2010-04-15 08:22:50 51°21.798 3°6.335 70.1 12 72 10.6
2010-04-15 08:22:55 51°21.804 3°6.36 70.5 12.1 70 10.3
2010-04-15 08:23:00 51°21.81 3°6.385 69.6 12.2 70 10.3
2010-04-15 08:23:05 51°21.815 3°6.411 70.5 12.1 69 10.4
2010-04-15 08:23:10 51°21.822 3°6.435 69.4 12 71 10.7
2010-04-15 08:23:15 51°21.827 3°6.46 70 12 70 10.3
2010-04-15 08:23:20 51°21.833 3°6.486 70.5 12.1 70 10.4
2010-04-15 08:23:26 51°21.84 3°6.516 69.8 12 70 10.4
2010-04-15 08:23:30 51°21.844 3°6.536 70.3 12.1 71 10.5
2010-04-15 08:23:35 51°21.85 3°6.561 70.2 12 69 10.4
2010-04-15 08:23:40 51°21.855 3°6.586 69.8 12 70 10.3
2010-04-15 08:23:45 51°21.861 3°6.611 69.5 12 69 10.4
2010-04-15 08:23:51 51°21.868 3°6.641 69.7 12.1 71 10.4
2010-04-15 08:23:55 51°21.873 3°6.66 69.5 12 69 10.4
2010-04-15 08:24:00 51°21.879 3°6.686 70.1 12 70 10.3
2010-04-15 08:24:05 51°21.885 3°6.711 69.8 12 70 10.5
2010-04-15 08:24:10 51°21.891 3°6.736 69.9 12.1 71 10.6
2010-04-15 08:24:15 51°21.897 3°6.761 69.9 12.1 67 10.4
2010-04-15 08:24:20 51°21.902 3°6.787 70.4 12.1 72 10.7
2010-04-15 08:24:25 51°21.908 3°6.812 70.4 12.1 70 10.7
2010-04-15 08:24:30 51°21.913 3°6.837 70.6 12.1 71 10.5
2010-04-15 08:24:35 51°21.919 3°6.862 70.7 12.1 70 10.3
2010-04-15 08:24:40 51°21.923 3°6.888 71.4 12.2 72 10.6
2010-04-15 08:24:45 51°21.93 3°6.913 70.4 12.2 70 10.6
2010-04-15 08:24:50 51°21.935 3°6.939 71.3 12.1 72 10.4
2010-04-15 08:24:55 51°21.941 3°6.964 70.8 12.1 69 10.5
2010-04-15 08:25:00 51°21.946 3°6.99 70.4 12.1 71 10.6
2010-04-15 08:25:05 51°21.951 3°7.015 70.7 12.2 70 10.8
2010-04-15 08:25:10 51°21.957 3°7.041 69.8 12.2 71 10.8
2010-04-15 08:25:15 51°21.963 3°7.066 70.4 12.1 71 10.6
2010-04-15 08:25:20 51°21.969 3°7.092 70.5 12.2 71 10.7
2010-04-15 08:25:25 51°21.975 3°7.117 70.3 12.3 70 10.8
2010-04-15 08:25:30 51°21.981 3°7.143 70.5 12.3 70 10.8
2010-04-15 08:25:35 51°21.986 3°7.169 70.4 12.3 71 10.8
2010-04-15 08:25:40 51°21.993 3°7.194 70.2 12.3 69 10.8
2010-04-15 08:25:46 51°21.999 3°7.225 70.4 12.3 70 10.7
2010-04-15 08:25:50 51°22.005 3°7.245 70.3 12.3 69 10.6
2010-04-15 08:25:55 51°22.01 3°7.271 70.5 12.3 72 11
2010-04-15 08:26:00 51°22.017 3°7.296 69 12.2 69 11
2010-04-15 08:26:05 51°22.022 3°7.322 70.6 12.2 72 10.8
2010-04-15 08:26:10 51°22.029 3°7.347 69.6 12.3 70 10.9
2010-04-15 08:26:15 51°22.034 3°7.373 70 12.3 71 11
2010-04-15 08:26:20 51°22.04 3°7.398 70.6 12.2 69 11
2010-04-15 08:26:25 51°22.045 3°7.423 69.8 12.2 70 10.8
2010-04-15 08:26:30 51°22.05 3°7.449 70.3 12.4 71 10.8
2010-04-15 08:26:35 51°22.056 3°7.474 70.5 12.3 69 10.8
2010-04-15 08:26:40 51°22.062 3°7.5 69.9 12.2 71 10.8
2010-04-15 08:26:44 51°22.066 3°7.52 70.5 12.2 70 11.1
2010-04-15 08:26:50 51°22.073 3°7.551 70.1 12.2 71 11.1
2010-04-15 08:26:55 51°22.079 3°7.576 70.5 12.2 70 11.1
2010-04-15 08:27:00 51°22.085 3°7.601 70.5 12.2 70 11
2010-04-15 08:27:05 51°22.09 3°7.627 70.3 12.2 70 11.1
2010-04-15 08:27:10 51°22.096 3°7.652 70.4 12.2 69 11.2
2010-04-15 08:27:15 51°22.101 3°7.678 70.4 12.2 72 11.1
2010-04-15 08:27:20 51°22.108 3°7.703 69.9 12.1 67 11
2010-04-15 08:27:25 51°22.113 3°7.728 70.4 12.2 75 11.1
2010-04-15 08:27:30 51°22.12 3°7.753 70.6 12.2 65 10.9
2010-04-15 08:27:35 51°22.124 3°7.779 70.5 12.1 73 11.2
2010-04-15 08:27:40 51°22.131 3°7.803 70.5 12 68 11.1
2010-04-15 08:27:45 51°22.136 3°7.829 69.8 12 72 11.3
2010-04-15 08:27:50 51°22.142 3°7.854 70.4 12 68 11.1
2010-04-15 08:27:55 51°22.148 3°7.879 70.1 12.1 70 11.1
2010-04-15 08:28:00 51°22.153 3°7.905 70.5 12.2 71 11.2
2010-04-15 08:28:05 51°22.159 3°7.93 70 12.2 71 11.2
2010-04-15 08:28:11 51°22.166 3°7.96 70.6 12 70 11.2
2010-04-15 08:28:15 51°22.17 3°7.98 70.7 12.1 72 11.3
2010-04-15 08:28:20 51°22.176 3°8.006 71.2 12.2 71 11.1
2010-04-15 08:28:25 51°22.181 3°8.031 70.5 12.3 70 11.4
2010-04-15 08:28:30 51°22.186 3°8.057 70.1 12.2 71 11.4
2010-04-15 08:28:35 51°22.191 3°8.082 70.5 12.2 72 11.4
2010-04-15 08:28:40 51°22.196 3°8.109 72.2 12.2 75 11.3
2010-04-15 08:28:45 51°22.2 3°8.135 74.3 12.2 78 11.5
2010-04-15 08:28:50 51°22.204 3°8.162 76 12.3 78 11.2
2010-04-15 08:28:55 51°22.208 3°8.188 76.9 12.3 78 11.3
2010-04-15 08:29:00 51°22.21 3°8.215 77.6 12.2 82 11.5
2010-04-15 08:29:05 51°22.213 3°8.242 78.9 12.3 80 11.6
2010-04-15 08:29:10 51°22.214 3°8.268 79.9 12.3 83 11.5
2010-04-15 08:29:15 51°22.217 3°8.295 80.5 12.3 82 11.4
2010-04-15 08:29:20 51°22.22 3°8.322 80.7 12.2 82 11.5
2010-04-15 08:29:25 51°22.222 3°8.349 80.5 12.3 84 11.4
2010-04-15 08:29:30 51°22.224 3°8.376 81.3 12.4 81 11.7
2010-04-15 08:29:35 51°22.226 3°8.403 81 12.3 83 11.5
2010-04-15 08:29:40 51°22.228 3°8.43 81.2 12.2 82 11.3
2010-04-15 08:29:45 51°22.23 3°8.457 81.4 12.3 84 11.5
2010-04-15 08:29:50 51°22.233 3°8.485 81.3 12.3 83 11.5
2010-04-15 08:29:55 51°22.234 3°8.512 81.9 12.4 85 11.6
2010-04-15 08:30:00 51°22.237 3°8.539 81.6 12.3 81 11.5
2010-04-15 08:30:04 51°22.238 3°8.561 82.6 12.4 84 11.6